»·PEaware :: AAL572 KLAS-KLAX

AAL572 :: KLAS-KLAX

FLIGHT INFORMATION

Flight Status: Arrived
Operator:
American Airlines
More flights by this operator :: More flights under this callsign
Pilot: Anonymous 8799 (8799)
Aircraft: AIRBUS A320
(A320)
More flights by this aircraft type
Origin: KLAS McCarran Intl
United States
Destination: KLAX Los Angeles Intl
United States
More flights between these airports :: More routes between these airports
Route: +BOACH8 RIKII SHTNR ANJLL2
File this flight plan on PilotEdge
Remarks:
Altitude:
(Current/Filed)
28,000ft
Speed:
(Current/Filed)
420kts
Departed: 22-Nov-17 05:38 PM
Arrived: 22-Nov-17 06:24 PM
Distance/Time
Traveled:
205nm/0:46
Distance/Time
To Go:
Arrived

Flight Plot

Page will automatically refresh every two minutes.

Flight plan parsing failed; only flown route is shown


Map Options




Map Legend


Flown Route
Filed Route
Departure Airport
Arrival Airport
Navaid (VOR, NDB)
Fix

Horizontal Profiles

Position Reports

Time Latitude Longitude Heading Altitude Ground
Speed
22-Nov-17 17:33 36.080053 -115.137359 120 2121ft 0kts
22-Nov-17 17:34 36.080052 -115.137357 120 2121ft 0kts
22-Nov-17 17:35 36.079477 -115.136539 137 2121ft 8kts
22-Nov-17 17:36 36.079215 -115.136243 142 2121ft 0kts
22-Nov-17 17:37 36.079072 -115.136089 137 2121ft 9kts
22-Nov-17 17:38 36.077481 -115.132056 84 2121ft 15kts
22-Nov-17 17:39 36.077533 -115.124767 80 2121ft 23kts
22-Nov-17 17:40 36.077573 -115.121801 104 2121ft 0kts
22-Nov-17 17:41 36.077573 -115.121801 104 2121ft 0kts
22-Nov-17 17:42 36.076560 -115.121601 232 2121ft 18kts
22-Nov-17 17:43 36.076791 -115.162308 270 3537ft 195kts
22-Nov-17 17:44 36.071925 -115.242001 241 6757ft 296kts
22-Nov-17 17:45 36.000484 -115.289256 200 7029ft 285kts
22-Nov-17 17:46 35.923059 -115.307616 185 7883ft 289kts
22-Nov-17 17:47 35.843900 -115.313883 174 11184ft 312kts
22-Nov-17 17:48 35.749009 -115.302894 174 13410ft 364kts
22-Nov-17 17:49 35.645619 -115.296091 181 16110ft 384kts
22-Nov-17 17:50 35.536811 -115.300488 182 18509ft 402kts
22-Nov-17 17:51 35.435247 -115.352482 212 19056ft 402kts
22-Nov-17 17:52 35.349415 -115.415093 212 19060ft 404kts
22-Nov-17 17:53 35.254756 -115.483743 213 21734ft 383kts
22-Nov-17 17:54 35.171962 -115.543785 214 23292ft 408kts
22-Nov-17 17:55 35.107336 -115.605344 236 24992ft 397kts
22-Nov-17 17:56 35.050523 -115.693959 236 28059ft 367kts
22-Nov-17 17:57 34.984105 -115.797975 236 28324ft 406kts
22-Nov-17 17:58 34.914721 -115.905860 236 28328ft 403kts
22-Nov-17 17:59 34.853831 -116.000195 236 28309ft 368kts
22-Nov-17 18:00 34.790574 -116.098251 236 28308ft 369kts
22-Nov-17 18:01 34.727183 -116.196159 236 28302ft 369kts
22-Nov-17 18:02 34.663751 -116.293817 236 27948ft 368kts
22-Nov-17 18:03 34.600439 -116.391026 236 26745ft 367kts
22-Nov-17 18:04 34.537401 -116.487542 236 25534ft 365kts
22-Nov-17 18:05 34.475150 -116.582593 236 24319ft 361kts
22-Nov-17 18:06 34.415902 -116.672839 235 23141ft 359kts
22-Nov-17 18:07 34.354565 -116.766020 235 21898ft 355kts
22-Nov-17 18:08 34.293276 -116.858886 234 20615ft 353kts
22-Nov-17 18:09 34.232391 -116.950892 234 19337ft 347kts
22-Nov-17 18:10 34.191515 -117.051735 253 18185ft 333kts
22-Nov-17 18:11 34.162199 -117.153777 253 16879ft 323kts
22-Nov-17 18:12 34.133084 -117.254803 252 15309ft 315kts
22-Nov-17 18:13 34.105925 -117.348753 252 13850ft 307kts
22-Nov-17 18:14 34.078220 -117.444269 251 12368ft 300kts
22-Nov-17 18:15 34.052323 -117.533162 251 12028ft 255kts
22-Nov-17 18:16 34.029500 -117.611429 251 11874ft 247kts
22-Nov-17 18:17 34.007955 -117.685241 252 10783ft 247kts
22-Nov-17 18:18 33.998851 -117.766077 263 9757ft 241kts
22-Nov-17 18:19 33.990682 -117.849993 263 7312ft 260kts
22-Nov-17 18:20 33.982827 -117.929562 264 6112ft 229kts
22-Nov-17 18:21 33.976763 -118.004465 265 4532ft 223kts
22-Nov-17 18:22 33.969106 -118.075785 263 3578ft 197kts
22-Nov-17 18:23 33.962452 -118.140530 263 3569ft 193kts
22-Nov-17 18:24 33.955726 -118.205049 263 3044ft 192kts
22-Nov-17 18:25 33.949770 -118.262307 263 2071ft 157kts
22-Nov-17 18:26 33.945015 -118.308459 263 1345ft 132kts
22-Nov-17 18:27 33.940543 -118.351867 263 647ft 133kts
22-Nov-17 18:28 33.936080 -118.395026 265 112ft 86kts
22-Nov-17 18:29 33.936565 -118.399571 288 112ft 0kts
22-Nov-17 18:30 33.936567 -118.401511 265 112ft 24kts
22-Nov-17 18:31 33.938248 -118.404828 298 112ft 0kts
22-Nov-17 18:32 33.939894 -118.405470 8 112ft 2kts
22-Nov-17 18:33 33.940468 -118.406192 280 112ft 0kts
22-Nov-17 18:34 33.940468 -118.406192 280 112ft 0kts
22-Nov-17 18:35 33.940468 -118.406192 280 112ft 0kts
22-Nov-17 18:36 33.940468 -118.406192 280 112ft 0kts
22-Nov-17 18:37 33.940468 -118.406192 280 112ft 0kts
22-Nov-17 18:38 33.940468 -118.406192 280 112ft 0kts
22-Nov-17 18:40 33.940468 -118.406192 280 112ft 0kts
22-Nov-17 18:41 33.940468 -118.406192 280 112ft 0kts
22-Nov-17 18:42 33.940468 -118.406192 280 112ft 0kts
22-Nov-17 18:43 33.940468 -118.406192 280 112ft 0kts
22-Nov-17 18:44 33.940468 -118.406192 280 112ft 0kts

Navigation Log

Ident Type
Flight plan parsing failed, navigation log unavailable